Time;durP1;ratioP1;P1;durP2;ratioP2;P2;SDS_P1;SDS_P2;PMS_P1;PMS_P2;Temp;Humidity;BMP_temperature;BMP_pressure;BME280_temperature;BME280_humidity;BME280_pressure;Samples;Min_cycle;Max_cycle;Signal;HPM_P1;HPM_P2
2021/10/20 00:01:30;;;;;;;2.50;1.63;;;14.90;99.90;;;;;;5022746;28;20267;-89
2021/10/20 00:04:02;;;;;;;5.37;1.80;;;14.70;99.90;;;;;;5022839;28;20246;-89
2021/10/20 00:06:33;;;;;;;4.67;1.57;;;14.60;99.90;;;;;;5021864;28;20209;-89
2021/10/20 00:09:05;;;;;;;4.20;1.70;;;14.50;99.90;;;;;;5023691;28;20205;-89
2021/10/20 00:11:38;;;;;;;4.23;1.77;;;14.40;99.90;;;;;;5025627;28;20214;-88
2021/10/20 00:14:10;;;;;;;3.00;1.67;;;14.30;99.90;;;;;;5025429;28;20221;-87
2021/10/20 00:16:42;;;;;;;6.07;1.90;;;14.30;99.90;;;;;;5036919;28;20209;-88
2021/10/20 00:19:14;;;;;;;4.97;2.47;;;14.30;99.90;;;;;;5039340;28;20205;-87
2021/10/20 00:21:46;;;;;;;7.13;2.30;;;14.20;99.90;;;;;;5039575;28;20228;-89
2021/10/20 00:24:17;;;;;;;2.93;2.10;;;14.10;99.90;;;;;;5039364;28;20193;-88
2021/10/20 00:26:53;;;;;;;4.70;2.20;;;14.10;99.90;;;;;;5039079;28;20201;-89
2021/10/20 00:29:25;;;;;;;3.33;2.10;;;14.20;99.90;;;;;;5038316;28;20193;-88
2021/10/20 00:31:56;;;;;;;3.97;2.07;;;14.20;99.90;;;;;;5025602;28;20209;-88
2021/10/20 00:34:29;;;;;;;2.57;2.00;;;14.20;99.90;;;;;;5026824;28;20198;-87
2021/10/20 00:37:01;;;;;;;5.10;2.10;;;14.10;99.90;;;;;;5024434;28;20234;-88
2021/10/20 00:39:32;;;;;;;5.37;1.90;;;14.10;99.90;;;;;;5016380;28;20206;-88
2021/10/20 00:42:15;;;;;;;4.33;2.10;;;14.00;99.90;;;;;;5099282;23;20202;-89
2021/10/20 00:45:26;;;;;;;2.53;2.10;;;13.90;99.90;;;;;;5103808;22;20243;-93
2021/10/20 00:47:58;;;;;;;5.33;2.23;;;13.80;99.90;;;;;;5029307;28;20229;-92
2021/10/20 00:50:31;;;;;;;5.30;2.17;;;13.70;99.90;;;;;;5027729;28;20206;-94
2021/10/20 00:53:02;;;;;;;5.10;2.23;;;13.60;99.90;;;;;;5021809;28;20684;-95
2021/10/20 00:55:35;;;;;;;4.10;2.33;;;13.50;99.90;;;;;;5022831;28;20211;-94
2021/10/20 00:58:11;;;;;;;4.03;2.43;;;13.50;99.90;;;;;;5023916;28;20371;-93
2021/10/20 01:00:42;;;;;;;2.47;2.00;;;13.40;99.90;;;;;;5018720;28;20208;-95
2021/10/20 01:03:15;;;;;;;6.27;2.60;;;13.30;99.90;;;;;;5020646;28;20275;-94
2021/10/20 01:05:46;;;;;;;5.97;2.03;;;13.20;99.90;;;;;;5019583;28;20210;-93
2021/10/20 01:08:17;;;;;;;4.03;2.37;;;13.10;99.90;;;;;;5019511;28;20206;-94
2021/10/20 01:10:49;;;;;;;3.03;2.30;;;13.00;99.90;;;;;;5019785;28;20201;-93
2021/10/20 01:13:22;;;;;;;10.33;4.97;;;12.90;99.90;;;;;;5020174;28;20258;-92
2021/10/20 01:15:54;;;;;;;9.10;5.53;;;12.80;99.90;;;;;;5002723;28;20209;-93
2021/10/20 01:18:26;;;;;;;12.90;7.27;;;12.80;99.90;;;;;;5009678;28;20237;-93
2021/10/20 01:21:01;;;;;;;11.23;6.67;;;12.70;99.90;;;;;;4998502;28;20206;-92
2021/10/20 01:23:35;;;;;;;7.27;5.33;;;12.60;99.90;;;;;;4998839;28;20221;-93
2021/10/20 01:29:05;;;;;;;6.77;4.10;;;12.50;99.90;;;;;;5033982;28;20220;-93
2021/10/20 01:31:49;;;;;;;4.87;3.57;;;12.50;99.90;;;;;;5010843;28;20216;-93
2021/10/20 01:34:21;;;;;;;6.50;3.87;;;12.40;99.90;;;;;;5038545;28;20227;-93
2021/10/20 01:36:54;;;;;;;5.67;2.93;;;12.40;99.90;;;;;;5001822;28;20555;-93
2021/10/20 01:39:27;;;;;;;4.40;3.37;;;12.30;99.90;;;;;;5023664;28;20206;-93
2021/10/20 01:41:59;;;;;;;5.93;3.53;;;12.30;99.90;;;;;;5031051;28;20613;-93
2021/10/20 01:44:33;;;;;;;6.20;3.17;;;12.20;99.90;;;;;;5012149;28;20332;-96
2021/10/20 01:47:05;;;;;;;6.03;3.27;;;12.20;99.90;;;;;;5023869;28;20261;-93
2021/10/20 01:49:39;;;;;;;5.03;2.90;;;12.10;99.90;;;;;;5019814;28;20217;-93
2021/10/20 01:52:25;;;;;;;6.33;3.13;;;12.10;99.90;;;;;;5021983;28;20229;-94
2021/10/20 01:55:00;;;;;;;5.87;3.33;;;12.00;99.90;;;;;;5035236;28;20209;-93
2021/10/20 01:57:34;;;;;;;3.93;2.83;;;12.00;99.90;;;;;;5030383;28;20228;-94
2021/10/20 02:00:15;;;;;;;4.80;3.00;;;12.00;99.90;;;;;;5014561;28;20209;-93
2021/10/20 02:02:47;;;;;;;5.13;3.30;;;11.90;99.90;;;;;;5010935;28;20209;-94
2021/10/20 02:05:19;;;;;;;11.83;3.90;;;11.90;99.90;;;;;;5031453;28;20206;-92
2021/10/20 02:07:51;;;;;;;5.27;3.07;;;11.90;99.90;;;;;;5032520;28;20206;-93
2021/10/20 02:14:13;;;;;;;4.87;2.90;;;11.80;99.90;;;;;;5033417;28;20208;-93
2021/10/20 02:16:46;;;;;;;4.93;3.00;;;11.70;99.90;;;;;;5030629;28;20220;-92
2021/10/20 02:19:18;;;;;;;10.17;3.53;;;11.70;99.90;;;;;;5030545;28;20229;-93
2021/10/20 02:28:28;;;;;;;4.80;3.30;;;11.50;99.90;;;;;;5035258;28;20241;-92
2021/10/20 02:31:25;;;;;;;5.23;3.20;;;11.50;99.90;;;;;;5037272;28;20188;-92
2021/10/20 02:34:05;;;;;;;5.33;3.50;;;11.50;99.90;;;;;;5037282;28;20193;-92
2021/10/20 02:37:00;;;;;;;6.37;3.50;;;11.40;99.90;;;;;;5035367;28;20186;-92
2021/10/20 02:50:23;;;;;;;8.43;3.87;;;11.40;99.90;;;;;;5038363;28;20257;-92
2021/10/20 02:52:55;;;;;;;3.33;2.97;;;11.30;99.90;;;;;;5049985;28;20243;-93
2021/10/20 02:55:29;;;;;;;3.97;3.07;;;11.20;99.90;;;;;;5049283;28;20205;-94
2021/10/20 03:01:07;;;;;;;6.77;3.77;;;11.10;99.90;;;;;;5046792;28;20193;-94
2021/10/20 03:03:42;;;;;;;6.17;4.27;;;11.10;99.90;;;;;;5028897;28;20691;-93
2021/10/20 03:06:17;;;;;;;7.80;3.80;;;11.00;99.90;;;;;;5037730;28;20219;-93
2021/10/20 03:08:50;;;;;;;6.10;4.10;;;11.00;99.90;;;;;;5045345;28;20232;-93
2021/10/20 03:16:39;;;;;;;6.10;4.53;;;11.00;99.90;;;;;;5752932;22;20252;-92
2021/10/20 03:19:12;;;;;;;4.87;3.30;;;10.90;99.90;;;;;;5027304;28;20296;-92
2021/10/20 03:21:47;;;;;;;7.17;4.30;;;10.90;99.90;;;;;;5029099;28;20209;-92
2021/10/20 04:13:24;;;;;;;5.03;3.63;;;10.80;99.90;;;;;;5032961;28;20205;-93
2021/10/20 04:21:28;;;;;;;6.13;3.73;;;10.70;99.90;;;;;;5035746;28;20205;-92
2021/10/20 04:24:00;;;;;;;6.70;3.90;;;10.80;99.90;;;;;;5030638;28;20205;-92
2021/10/20 04:26:32;;;;;;;5.83;3.40;;;10.80;99.90;;;;;;5011628;28;20206;-92
2021/10/20 04:29:07;;;;;;;4.50;3.37;;;10.90;99.90;;;;;;5028218;28;20229;-91
2021/10/20 04:31:38;;;;;;;9.30;3.20;;;10.90;99.90;;;;;;5032057;28;20233;-92
2021/10/20 04:34:10;;;;;;;5.53;3.40;;;10.90;99.90;;;;;;5003050;28;20300;-92
2021/10/20 04:36:41;;;;;;;6.73;3.00;;;10.80;99.90;;;;;;5002117;28;20206;-92
2021/10/20 04:39:16;;;;;;;3.90;2.97;;;10.90;99.90;;;;;;5019335;28;20233;-92
2021/10/20 04:41:49;;;;;;;5.47;3.23;;;10.90;99.90;;;;;;5007373;28;20193;-93
2021/10/20 04:44:27;;;;;;;6.80;3.17;;;10.90;99.90;;;;;;5021693;28;20289;-91
2021/10/20 04:46:59;;;;;;;4.77;2.60;;;10.80;99.90;;;;;;5021862;28;20209;-93
2021/10/20 04:49:32;;;;;;;4.80;2.90;;;10.90;99.90;;;;;;5021610;28;20201;-93
2021/10/20 04:52:04;;;;;;;6.07;3.20;;;10.90;99.90;;;;;;5021188;28;20198;-93
2021/10/20 04:54:36;;;;;;;4.07;2.73;;;10.80;99.90;;;;;;5031461;28;20202;-93
2021/10/20 04:57:08;;;;;;;5.57;2.80;;;10.80;99.90;;;;;;5025830;28;20205;-93
2021/10/20 04:59:44;;;;;;;6.33;2.93;;;10.80;99.90;;;;;;5022491;28;20240;-94
2021/10/20 05:02:16;;;;;;;6.97;2.70;;;10.80;99.90;;;;;;5021701;28;20211;-93
2021/10/20 05:04:48;;;;;;;3.40;2.60;;;10.70;99.90;;;;;;5021498;28;20209;-93
2021/10/20 05:07:20;;;;;;;4.83;2.70;;;10.70;99.90;;;;;;5022371;28;20209;-93
2021/10/20 05:09:52;;;;;;;7.33;2.43;;;10.80;99.90;;;;;;5021817;28;20236;-93
2021/10/20 05:12:25;;;;;;;3.67;2.70;;;10.80;99.90;;;;;;5007017;28;20226;-93
2021/10/20 05:15:03;;;;;;;5.90;2.90;;;10.80;99.90;;;;;;5059294;22;20253;-94
2021/10/20 05:17:34;;;;;;;3.77;2.60;;;10.80;99.90;;;;;;5020854;28;20241;-91
2021/10/20 05:20:11;;;;;;;5.87;3.00;;;10.80;99.90;;;;;;5023678;28;20322;-90
2021/10/20 05:22:45;;;;;;;3.57;2.43;;;10.80;99.90;;;;;;5032393;28;20197;-91
2021/10/20 05:27:54;;;;;;;6.07;2.60;;;10.80;99.90;;;;;;5063548;28;20281;-91
2021/10/20 05:30:29;;;;;;;3.83;2.80;;;10.80;99.90;;;;;;5060421;28;20231;-92
2021/10/20 05:33:01;;;;;;;5.30;3.00;;;10.80;99.90;;;;;;5054469;28;20240;-91
2021/10/20 05:35:34;;;;;;;5.47;3.27;;;10.80;99.90;;;;;;5042021;28;20209;-90
2021/10/20 05:38:06;;;;;;;4.47;2.90;;;10.80;99.90;;;;;;5045303;28;20219;-92
2021/10/20 05:40:38;;;;;;;3.20;2.70;;;10.90;99.90;;;;;;5052581;28;20231;-92
2021/10/20 05:43:11;;;;;;;4.07;2.87;;;10.90;99.90;;;;;;5040248;28;20251;-92
2021/10/20 05:45:51;;;;;;;5.97;2.90;;;10.80;99.90;;;;;;5062213;28;20292;-93
2021/10/20 05:48:28;;;;;;;4.83;3.07;;;10.90;99.90;;;;;;5068861;28;20220;-92
2021/10/20 05:51:00;;;;;;;5.47;2.73;;;10.90;99.90;;;;;;5065968;28;20195;-94
2021/10/20 05:53:31;;;;;;;5.30;2.83;;;10.80;99.90;;;;;;5071295;28;20215;-94
2021/10/20 05:56:05;;;;;;;4.13;2.67;;;10.80;99.90;;;;;;5076035;28;20192;-92
2021/10/20 05:58:36;;;;;;;4.43;2.47;;;10.80;99.90;;;;;;5070046;28;20220;-94
2021/10/20 06:01:12;;;;;;;9.80;2.67;;;10.90;99.90;;;;;;5070664;28;20215;-93
2021/10/20 06:03:48;;;;;;;3.73;2.60;;;10.90;99.90;;;;;;5068681;28;20219;-94
2021/10/20 06:06:21;;;;;;;3.40;2.53;;;10.90;99.90;;;;;;5057983;28;20279;-93
2021/10/20 06:08:55;;;;;;;5.50;3.03;;;10.90;99.90;;;;;;5039757;28;20323;-93
2021/10/20 06:11:27;;;;;;;4.23;2.93;;;10.80;99.90;;;;;;5039559;28;20232;-92
2021/10/20 06:13:58;;;;;;;3.90;2.43;;;10.90;99.90;;;;;;5039444;28;20213;-92
2021/10/20 06:16:35;;;;;;;4.97;2.77;;;10.90;99.90;;;;;;5047730;28;20224;-93
2021/10/20 06:19:07;;;;;;;4.53;2.70;;;10.80;99.90;;;;;;5059739;28;20219;-93
2021/10/20 06:21:38;;;;;;;2.60;2.13;;;10.80;99.90;;;;;;5044656;28;20224;-92
2021/10/20 06:24:10;;;;;;;3.13;2.43;;;10.80;99.90;;;;;;5037275;28;20242;-93
2021/10/20 06:26:42;;;;;;;8.40;2.83;;;10.80;99.90;;;;;;5036560;28;20217;-93
2021/10/20 06:29:14;;;;;;;5.40;2.80;;;10.80;99.90;;;;;;5037234;28;20231;-93
2021/10/20 06:31:48;;;;;;;3.13;2.60;;;10.80;99.90;;;;;;5041428;28;20219;-92
2021/10/20 06:34:19;;;;;;;4.53;2.70;;;10.80;99.90;;;;;;5036741;28;20205;-93
2021/10/20 06:36:50;;;;;;;5.73;2.83;;;10.80;99.90;;;;;;5035437;28;20196;-89
2021/10/20 06:39:24;;;;;;;4.33;2.67;;;10.80;99.90;;;;;;5052822;28;20259;-90
2021/10/20 06:41:55;;;;;;;5.33;2.60;;;10.80;99.90;;;;;;5056070;28;20223;-91
2021/10/20 06:44:27;;;;;;;2.90;2.47;;;10.80;99.90;;;;;;5056536;28;20263;-91
2021/10/20 06:47:01;;;;;;;4.17;2.33;;;10.80;99.90;;;;;;5055557;28;20240;-91
2021/10/20 06:49:32;;;;;;;3.83;2.67;;;10.80;99.90;;;;;;5056422;28;20729;-92
2021/10/20 06:52:03;;;;;;;7.87;2.53;;;10.80;99.90;;;;;;5056776;28;20757;-93
2021/10/20 06:54:34;;;;;;;6.13;2.60;;;10.70;99.90;;;;;;5056137;28;20243;-93
2021/10/20 06:57:06;;;;;;;5.57;2.77;;;10.80;99.90;;;;;;5056076;28;20204;-93
2021/10/20 06:59:38;;;;;;;4.80;2.33;;;10.70;99.90;;;;;;5057107;28;20250;-93
2021/10/20 07:02:12;;;;;;;2.70;2.40;;;10.80;99.90;;;;;;5074302;28;20211;-92
2021/10/20 07:04:44;;;;;;;4.70;2.60;;;10.70;99.90;;;;;;5075926;28;20214;-93
2021/10/20 07:07:15;;;;;;;3.60;2.40;;;10.80;99.90;;;;;;5074288;28;20208;-94
2021/10/20 07:09:46;;;;;;;3.30;2.50;;;10.80;99.90;;;;;;5062494;28;20235;-94
2021/10/20 07:12:19;;;;;;;3.57;2.90;;;10.80;99.90;;;;;;5060849;28;20207;-92
2021/10/20 07:14:51;;;;;;;4.57;3.00;;;10.80;99.90;;;;;;5055245;28;20235;-93
2021/10/20 07:17:24;;;;;;;8.43;3.77;;;10.80;99.90;;;;;;5055194;28;20212;-93
2021/10/20 07:19:55;;;;;;;3.63;2.53;;;10.80;99.90;;;;;;5055973;28;20256;-93
2021/10/20 07:22:27;;;;;;;4.03;2.67;;;10.80;99.90;;;;;;5055106;28;20200;-93
2021/10/20 07:24:58;;;;;;;3.27;2.23;;;10.80;99.90;;;;;;5055275;28;20200;-92
2021/10/20 07:27:31;;;;;;;4.50;2.70;;;10.80;99.90;;;;;;5056141;28;20216;-92
2021/10/20 07:30:02;;;;;;;5.57;2.53;;;10.80;99.90;;;;;;5056153;28;20232;-93
2021/10/20 07:32:37;;;;;;;4.30;2.60;;;10.80;99.90;;;;;;5056416;28;20270;-91
2021/10/20 07:35:09;;;;;;;7.03;3.10;;;10.80;99.90;;;;;;5055038;28;20218;-92
2021/10/20 07:37:41;;;;;;;4.97;2.50;;;10.80;99.90;;;;;;5051682;28;20208;-91
2021/10/20 07:40:14;;;;;;;6.43;2.63;;;10.80;99.90;;;;;;5055774;28;20287;-92
2021/10/20 07:42:46;;;;;;;4.97;2.53;;;10.90;99.90;;;;;;5056986;28;20208;-92
2021/10/20 07:45:20;;;;;;;8.10;2.67;;;10.80;99.90;;;;;;5055160;28;20239;-92
2021/10/20 07:47:54;;;;;;;4.03;2.73;;;10.80;99.90;;;;;;5056100;28;20204;-92
2021/10/20 07:50:25;;;;;;;6.47;2.50;;;10.80;99.90;;;;;;5055933;28;20592;-93
2021/10/20 07:52:58;;;;;;;3.20;2.70;;;10.80;99.90;;;;;;5055804;28;20219;-92
2021/10/20 07:55:28;;;;;;;4.63;2.77;;;10.90;99.90;;;;;;5056445;28;20274;-93
2021/10/20 07:58:00;;;;;;;5.03;3.50;;;10.80;99.90;;;;;;5055766;28;20204;-93
2021/10/20 08:00:31;;;;;;;4.00;3.00;;;10.80;99.90;;;;;;5057454;28;20238;-93
2021/10/20 08:03:06;;;;;;;3.70;2.83;;;10.80;99.90;;;;;;5057058;28;20227;-93
2021/10/20 08:05:38;;;;;;;5.07;3.00;;;10.90;99.90;;;;;;5054944;28;20216;-93
2021/10/20 08:08:11;;;;;;;5.80;2.87;;;10.80;99.90;;;;;;5055968;28;20197;-93
2021/10/20 08:10:42;;;;;;;5.10;2.87;;;10.90;99.90;;;;;;5058454;28;20223;-93
2021/10/20 08:13:14;;;;;;;6.47;2.60;;;10.90;99.90;;;;;;5059740;28;20201;-94
2021/10/20 08:15:45;;;;;;;3.97;2.93;;;10.80;99.90;;;;;;5058542;28;20200;-93
2021/10/20 08:18:18;;;;;;;3.50;2.50;;;10.80;99.90;;;;;;5059472;28;20687;-93
2021/10/20 08:20:50;;;;;;;4.00;2.80;;;10.80;99.90;;;;;;5059135;28;20270;-94
2021/10/20 08:23:21;;;;;;;7.07;3.63;;;10.80;99.90;;;;;;5058864;28;20208;-94
2021/10/20 08:25:52;;;;;;;4.63;2.83;;;10.80;99.90;;;;;;5057900;28;20624;-92
2021/10/20 08:28:23;;;;;;;4.77;2.90;;;10.80;99.90;;;;;;5057975;28;20216;-92
2021/10/20 08:30:55;;;;;;;5.93;2.80;;;10.90;99.90;;;;;;5053832;28;20987;-93
2021/10/20 08:33:28;;;;;;;6.00;2.97;;;10.90;99.90;;;;;;5055770;28;20212;-92
2021/10/20 08:36:00;;;;;;;7.23;3.13;;;10.90;99.90;;;;;;5057084;28;20212;-92
2021/10/20 08:38:32;;;;;;;5.87;2.87;;;10.90;99.90;;;;;;5050689;28;20205;-92
2021/10/20 08:41:04;;;;;;;7.57;3.20;;;10.90;99.90;;;;;;5039258;28;20306;-92
2021/10/20 08:43:36;;;;;;;4.63;3.10;;;10.90;99.90;;;;;;5056147;28;20196;-92
2021/10/20 08:46:08;;;;;;;5.80;3.17;;;10.90;99.90;;;;;;5058428;28;20655;-92
2021/10/20 08:48:42;;;;;;;5.90;3.20;;;10.90;99.90;;;;;;5058901;28;20239;-92
2021/10/20 08:51:15;;;;;;;10.00;3.10;;;11.00;99.90;;;;;;5058700;28;20228;-92
2021/10/20 08:53:47;;;;;;;6.70;2.70;;;11.10;99.90;;;;;;5058130;28;20326;-92
2021/10/20 08:56:18;;;;;;;5.63;2.83;;;11.10;99.90;;;;;;5057166;28;20634;-93
2021/10/20 08:58:49;;;;;;;10.87;3.60;;;11.10;99.90;;;;;;5058303;28;20227;-93
2021/10/20 09:01:20;;;;;;;5.87;3.13;;;11.20;99.90;;;;;;5057556;28;20239;-93
2021/10/20 09:03:55;;;;;;;8.87;4.07;;;11.30;99.90;;;;;;5058215;28;20223;-93
2021/10/20 09:06:30;;;;;;;4.13;3.10;;;11.30;99.90;;;;;;5057922;28;20235;-93
2021/10/20 09:09:04;;;;;;;8.37;3.07;;;11.30;99.90;;;;;;5058511;28;20208;-94
2021/10/20 09:11:35;;;;;;;7.03;2.90;;;11.20;99.90;;;;;;5058928;28;20235;-93
2021/10/20 09:14:07;;;;;;;9.03;3.40;;;11.20;99.90;;;;;;5068006;28;20204;-93
2021/10/20 09:16:42;;;;;;;5.93;3.00;;;11.20;99.90;;;;;;5074728;28;20204;-93
2021/10/20 09:19:18;;;;;;;6.03;3.37;;;11.20;99.90;;;;;;5056382;28;20215;-94
2021/10/20 09:21:53;;;;;;;5.90;3.13;;;11.30;99.90;;;;;;5044821;28;20236;-93
2021/10/20 09:24:25;;;;;;;6.67;3.20;;;11.30;99.90;;;;;;5041971;28;20208;-93
2021/10/20 09:26:59;;;;;;;6.50;3.33;;;11.30;99.90;;;;;;5038387;28;20343;-92
2021/10/20 09:29:33;;;;;;;6.60;2.70;;;11.30;99.90;;;;;;5053189;28;20204;-91
2021/10/20 09:32:06;;;;;;;6.23;2.90;;;11.50;99.90;;;;;;5057110;28;20236;-92
2021/10/20 09:34:41;;;;;;;7.13;2.60;;;11.80;99.90;;;;;;5058309;28;20596;-91
2021/10/20 09:37:13;;;;;;;5.43;2.50;;;12.00;99.90;;;;;;5056272;28;20234;-91
2021/10/20 09:39:47;;;;;;;7.43;3.13;;;12.20;99.90;;;;;;5057309;28;20200;-91
2021/10/20 09:42:19;;;;;;;3.90;2.83;;;12.40;99.90;;;;;;5056325;28;20293;-91
2021/10/20 09:44:52;;;;;;;3.80;2.90;;;12.50;99.90;;;;;;5037348;28;20607;-91
2021/10/20 09:47:27;;;;;;;5.73;3.10;;;12.50;99.90;;;;;;5046686;28;20657;-92
2021/10/20 09:50:01;;;;;;;6.27;3.20;;;12.50;99.90;;;;;;5041033;28;20204;-91
2021/10/20 09:52:43;;;;;;;6.60;2.80;;;12.40;99.90;;;;;;5057547;28;20212;-92
2021/10/20 09:55:30;;;;;;;7.07;2.90;;;12.30;99.90;;;;;;5069870;28;20212;-93
2021/10/20 09:58:03;;;;;;;5.63;3.10;;;12.30;99.90;;;;;;5060893;28;20231;-93
2021/10/20 10:00:35;;;;;;;6.13;3.90;;;12.10;99.90;;;;;;5061240;28;20639;-94
2021/10/20 10:03:08;;;;;;;5.40;3.30;;;11.90;99.90;;;;;;5056993;28;20240;-93
2021/10/20 10:05:42;;;;;;;8.33;3.80;;;11.80;99.90;;;;;;5055902;28;20235;-93
2021/10/20 10:08:13;;;;;;;6.97;3.50;;;11.70;99.90;;;;;;5057304;28;20207;-93
2021/10/20 10:10:45;;;;;;;5.30;3.60;;;11.60;99.90;;;;;;5056713;28;20267;-93
2021/10/20 10:13:23;;;;;;;6.87;3.43;;;11.60;99.90;;;;;;5056965;28;20216;-93
2021/10/20 10:15:56;;;;;;;6.33;4.00;;;11.60;99.90;;;;;;5055126;28;20204;-93
2021/10/20 10:18:28;;;;;;;6.40;3.97;;;11.50;99.90;;;;;;5039594;28;20282;-93
2021/10/20 10:21:03;;;;;;;5.57;3.90;;;11.40;99.90;;;;;;5036715;28;20239;-93
2021/10/20 10:23:35;;;;;;;6.63;4.00;;;11.40;99.90;;;;;;5036675;28;20204;-93
2021/10/20 10:26:07;;;;;;;4.60;3.73;;;11.40;99.90;;;;;;5035763;28;20216;-92
2021/10/20 10:28:39;;;;;;;5.87;3.27;;;11.50;99.90;;;;;;5037000;28;20211;-92
2021/10/20 10:31:11;;;;;;;6.33;3.53;;;11.50;99.90;;;;;;5039906;28;20212;-92
2021/10/20 10:33:54;;;;;;;7.80;3.20;;;11.60;99.90;;;;;;5036242;28;20282;-91
2021/10/20 10:36:28;;;;;;;5.57;3.30;;;11.70;99.90;;;;;;5044347;28;20215;-92
2021/10/20 10:39:08;;;;;;;6.30;3.70;;;11.70;99.90;;;;;;5056765;28;20276;-91
2021/10/20 10:41:46;;;;;;;8.20;3.30;;;11.90;99.90;;;;;;5055066;28;20207;-92
2021/10/20 10:44:24;;;;;;;6.27;2.87;;;12.00;99.90;;;;;;5056406;28;20228;-91
2021/10/20 10:47:16;;;;;;;5.80;3.03;;;12.30;99.90;;;;;;5051162;28;20224;-91
2021/10/20 10:49:53;;;;;;;5.30;3.07;;;12.60;99.90;;;;;;5036790;28;20201;-92
2021/10/20 10:52:32;;;;;;;6.83;2.77;;;13.00;99.90;;;;;;5035859;28;20232;-92
2021/10/20 10:55:13;;;;;;;5.87;2.77;;;13.10;99.90;;;;;;5035946;28;20257;-92
2021/10/20 10:57:46;;;;;;;4.73;2.87;;;13.30;99.90;;;;;;5036696;28;20675;-92
2021/10/20 11:00:48;;;;;;;6.40;3.17;;;13.20;99.90;;;;;;5036076;28;20339;-92
2021/10/20 11:03:27;;;;;;;4.60;2.73;;;13.10;99.90;;;;;;5026379;28;20223;-94
2021/10/20 11:06:02;;;;;;;7.17;3.30;;;13.00;99.90;;;;;;5036169;28;20219;-94
2021/10/20 11:08:37;;;;;;;4.63;3.03;;;12.90;99.90;;;;;;5036560;28;20274;-93
2021/10/20 11:11:08;;;;;;;5.43;2.90;;;12.80;99.90;;;;;;5036291;28;20225;-93
2021/10/20 11:13:40;;;;;;;4.17;3.13;;;12.70;99.90;;;;;;5036739;28;20290;-93
2021/10/20 11:16:12;;;;;;;7.87;3.27;;;12.60;99.90;;;;;;5038033;28;20213;-93
2021/10/20 11:18:53;;;;;;;5.33;3.27;;;12.50;99.90;;;;;;5040234;28;20212;-94
2021/10/20 11:21:24;;;;;;;3.83;2.90;;;12.50;99.90;;;;;;5040222;28;20629;-93
2021/10/20 11:23:57;;;;;;;5.60;3.20;;;12.40;99.90;;;;;;5041980;28;20209;-91
2021/10/20 11:26:32;;;;;;;6.63;2.70;;;12.30;99.90;;;;;;5052258;28;20219;-93
2021/10/20 11:29:08;;;;;;;5.27;3.27;;;12.30;99.90;;;;;;5056111;28;20220;-92
2021/10/20 11:31:40;;;;;;;8.67;3.53;;;12.30;99.90;;;;;;5056242;28;20192;-92
2021/10/20 11:34:18;;;;;;;5.17;3.10;;;12.20;99.90;;;;;;5054801;28;20196;-91
2021/10/20 11:36:50;;;;;;;6.33;3.23;;;12.20;99.90;;;;;;5054650;28;20205;-92
2021/10/20 11:39:29;;;;;;;7.90;3.63;;;12.20;99.90;;;;;;5068785;28;20196;-92
2021/10/20 11:42:02;;;;;;;4.43;3.30;;;12.10;99.90;;;;;;5070510;28;20239;-92
2021/10/20 11:44:37;;;;;;;7.30;3.40;;;12.10;99.90;;;;;;5058356;28;20215;-92
2021/10/20 11:47:13;;;;;;;4.50;3.30;;;12.10;99.90;;;;;;5060005;28;20266;-92
2021/10/20 11:49:49;;;;;;;8.43;3.90;;;12.00;99.90;;;;;;5059759;28;20207;-91
2021/10/20 11:52:22;;;;;;;6.03;3.27;;;12.00;99.90;;;;;;5059883;28;20223;-92
2021/10/20 11:54:57;;;;;;;5.70;3.10;;;12.00;99.90;;;;;;5059571;28;20280;-93
2021/10/20 11:57:29;;;;;;;5.87;3.20;;;12.00;99.90;;;;;;5057982;28;20218;-93
2021/10/20 11:59:59;;;;;;;9.57;3.60;;;12.00;99.90;;;;;;5058624;28;20227;-95
2021/10/20 12:02:34;;;;;;;7.50;3.90;;;12.00;99.90;;;;;;5058770;28;20254;-93
2021/10/20 12:05:06;;;;;;;5.40;3.23;;;12.00;99.90;;;;;;5058622;28;20195;-94
2021/10/20 12:07:39;;;;;;;5.03;3.20;;;11.90;99.90;;;;;;5054077;28;20193;-94
2021/10/20 12:10:16;;;;;;;5.70;3.83;;;11.90;99.90;;;;;;5040438;28;20208;-94
2021/10/20 12:12:49;;;;;;;5.97;3.67;;;11.80;99.90;;;;;;5039715;28;20232;-93
2021/10/20 12:15:22;;;;;;;4.47;3.53;;;11.80;99.90;;;;;;5038588;28;20205;-93
2021/10/20 12:17:54;;;;;;;8.27;3.97;;;11.70;99.90;;;;;;5039288;28;20603;-93
2021/10/20 12:20:26;;;;;;;6.20;3.70;;;11.80;99.90;;;;;;5039413;28;20209;-93
2021/10/20 12:22:59;;;;;;;5.63;3.53;;;11.70;99.90;;;;;;5039147;28;20247;-94
2021/10/20 12:25:39;;;;;;;8.30;3.90;;;11.60;99.90;;;;;;5038477;28;20267;-94
2021/10/20 12:28:12;;;;;;;6.90;3.70;;;11.50;99.90;;;;;;5038985;28;20267;-91
2021/10/20 12:30:44;;;;;;;7.63;4.33;;;11.50;99.90;;;;;;5054885;28;20263;-92
2021/10/20 12:33:15;;;;;;;9.03;4.73;;;11.50;99.90;;;;;;5058337;28;20232;-92
2021/10/20 12:35:50;;;;;;;6.50;4.07;;;11.40;99.90;;;;;;5039690;28;20196;-92
2021/10/20 12:38:22;;;;;;;7.80;4.30;;;11.40;99.90;;;;;;5038021;28;20212;-91
2021/10/20 12:40:55;;;;;;;6.83;3.97;;;11.40;99.90;;;;;;5038737;28;20205;-92
2021/10/20 12:43:27;;;;;;;5.80;4.00;;;11.30;99.90;;;;;;5037289;28;20204;-92
2021/10/20 12:45:59;;;;;;;7.93;4.23;;;11.30;99.90;;;;;;5038194;28;20292;-93
2021/10/20 12:48:31;;;;;;;6.20;4.10;;;11.30;99.90;;;;;;5045795;28;20678;-92
2021/10/20 12:51:11;;;;;;;6.17;4.47;;;11.20;99.90;;;;;;5040102;28;20220;-92
2021/10/20 12:53:44;;;;;;;11.07;4.80;;;11.20;99.90;;;;;;5038421;28;20591;-92
2021/10/20 12:56:18;;;;;;;11.57;4.77;;;11.10;99.90;;;;;;5039724;28;20208;-92
2021/10/20 12:58:49;;;;;;;8.80;5.13;;;11.10;99.90;;;;;;5038269;28;20251;-93
2021/10/20 13:01:20;;;;;;;8.80;4.47;;;11.00;99.90;;;;;;5041970;28;20201;-94
2021/10/20 13:03:51;;;;;;;8.67;5.13;;;11.00;99.90;;;;;;5040340;28;20205;-93
2021/10/20 13:06:27;;;;;;;9.43;4.50;;;11.10;99.90;;;;;;5041635;28;20209;-93
2021/10/20 13:09:00;;;;;;;10.47;4.93;;;11.00;99.90;;;;;;5039659;28;20193;-93
2021/10/20 13:11:34;;;;;;;15.73;4.43;;;11.00;99.90;;;;;;5038988;28;20211;-93
2021/10/20 13:14:06;;;;;;;9.90;4.93;;;11.00;99.90;;;;;;5039849;28;20282;-92
2021/10/20 13:16:38;;;;;;;9.47;4.77;;;11.00;99.90;;;;;;5040747;28;20208;-94
2021/10/20 13:19:10;;;;;;;7.43;4.53;;;11.00;99.90;;;;;;5058657;28;20208;-94
2021/10/20 13:21:42;;;;;;;7.03;4.53;;;11.00;99.90;;;;;;5058174;28;20211;-93
2021/10/20 13:24:13;;;;;;;6.57;4.30;;;10.90;99.90;;;;;;5058497;28;20236;-94
2021/10/20 13:26:46;;;;;;;9.47;4.40;;;10.90;99.90;;;;;;5059678;28;20207;-94
2021/10/20 13:29:18;;;;;;;5.97;4.57;;;10.90;99.90;;;;;;5057136;28;20216;-92
2021/10/20 13:31:49;;;;;;;6.50;4.30;;;10.90;99.90;;;;;;5056782;28;20236;-92
2021/10/20 13:34:21;;;;;;;11.33;4.67;;;10.90;99.90;;;;;;5057950;28;20230;-93
2021/10/20 13:36:52;;;;;;;5.13;4.07;;;10.90;99.90;;;;;;5057508;28;20231;-92
2021/10/20 13:39:23;;;;;;;15.93;5.27;;;10.90;99.90;;;;;;5058256;28;20217;-92
2021/10/20 13:41:59;;;;;;;7.40;4.57;;;10.90;99.90;;;;;;5042059;28;20247;-91
2021/10/20 13:44:31;;;;;;;7.43;4.67;;;10.90;99.90;;;;;;5057886;28;20193;-92
2021/10/20 13:47:03;;;;;;;8.10;4.50;;;11.00;99.90;;;;;;5057312;28;20197;-92
2021/10/20 13:49:52;;;;;;;9.47;4.80;;;10.90;99.90;;;;;;5056561;28;20236;-92
2021/10/20 13:52:25;;;;;;;5.93;4.40;;;11.00;99.90;;;;;;5049775;28;20216;-93
2021/10/20 13:54:56;;;;;;;8.77;4.53;;;11.00;99.90;;;;;;5061592;28;20232;-92
2021/10/20 13:57:31;;;;;;;8.50;4.27;;;10.90;99.90;;;;;;5059776;28;20214;-93
2021/10/20 14:00:03;;;;;;;11.17;4.73;;;10.90;99.90;;;;;;5059013;28;20208;-93
2021/10/20 14:02:34;;;;;;;8.90;4.60;;;11.00;99.90;;;;;;5064212;28;20231;-93
2021/10/20 14:05:07;;;;;;;6.63;4.80;;;11.00;99.90;;;;;;5059515;28;20235;-93
2021/10/20 14:07:38;;;;;;;7.17;4.73;;;10.90;99.90;;;;;;5054553;28;20219;-92
2021/10/20 14:10:10;;;;;;;7.90;4.87;;;10.90;99.90;;;;;;5053365;28;20235;-92
2021/10/20 14:12:45;;;;;;;7.47;4.83;;;10.90;99.90;;;;;;5054280;28;20202;-93
2021/10/20 14:15:18;;;;;;;7.97;4.77;;;10.90;99.90;;;;;;5055872;28;20223;-92
2021/10/20 14:17:49;;;;;;;6.53;4.13;;;10.90;99.90;;;;;;5071260;28;20224;-93
2021/10/20 14:23:09;;;;;;;9.57;4.67;;;10.90;99.90;;;;;;5053615;28;20216;-94
2021/10/20 14:25:44;;;;;;;7.87;4.13;;;10.90;99.90;;;;;;5062203;28;20269;-92
2021/10/20 14:28:20;;;;;;;7.27;4.23;;;10.90;99.90;;;;;;5070845;28;20208;-93
2021/10/20 14:30:52;;;;;;;7.27;4.63;;;10.90;99.90;;;;;;4718262;28;10000007;-95
2021/10/20 14:33:23;;;;;;;8.33;4.33;;;10.80;99.90;;;;;;5070699;28;20211;-94
2021/10/20 14:35:59;;;;;;;12.27;5.30;;;10.80;99.90;;;;;;5069469;28;20223;-93
2021/10/20 14:38:31;;;;;;;6.07;4.27;;;10.80;99.90;;;;;;5067418;28;20188;-93
2021/10/20 14:41:14;;;;;;;5.67;4.10;;;10.80;99.90;;;;;;5052546;28;20232;-93
2021/10/20 14:43:47;;;;;;;10.20;4.20;;;10.80;99.90;;;;;;5038994;28;20208;-94
2021/10/20 14:46:20;;;;;;;6.50;4.83;;;10.90;99.90;;;;;;5067916;28;20658;-93
2021/10/20 14:48:54;;;;;;;6.87;4.53;;;10.80;99.90;;;;;;5063021;28;20191;-94
2021/10/20 14:51:30;;;;;;;6.37;4.30;;;10.80;99.90;;;;;;5063089;28;20208;-92